Terminal Aerodrome Forecast
Issued by NWS

Home | Current Version | Previous Version | Text Only | Print | Product List | Glossary On
Versions: 1 2 3 4 5 6 7 8 9 10 11 12 13 14 15
000
FTUS43 KICT 282300
TAFCNU
TAF
KCNU 282324Z 2900/2924 17012G18KT P6SM SCT050
     FM290100 16008KT P6SM SCT250
     FM291000 17007KT P6SM VCTS BKN060CB=

USA.gov is the U.S. government's official web portal to all federal, state and local government web resources and services.